Poy Sippi, Wisconsin
Current Conditions -  °F | °C
As of 5:15 PM on Wednesday 22 Oct 2014 (Local Time) from KPCZ Reporting Station
Clear Clear  
Wind Chill: 56°   Ceiling: Unl
Heat Index: 56°   Visibility: 10mi
Dew Point: 38°   Wind: 6mph
Humidity: 52%   Direction: 110°ESE
Pressure: 30.25"   Gusts: NA
Location:  44.14°N, 89°W
Report Text: KPCZ 222215Z AUTO 11005KT 10SM CLR 13/04 A3025 RMK AO2 T01340036
Loading
Personal Weather Stations






























Interactive Weather Map
Tropical Storm Tracking
New forecast layout! Learn more

10-Day Weather Forecast

Advertisements
Track Severe Weather on mobile